This is the latest recevied weather packets stored in our database for station/object N2ZVN. If no packets are shown the sender has not sent any weather packets the latest 10 day(s).
| Time | Temp. | Humidity | Pressure | Rain* | Wind** | Luminosity | Snow |
|---|---|---|---|---|---|---|---|
| 1777864286 | 12.78° C | 46% | 1008.9 hPa | 0 mm | - | 0 W/m² | - |
| 1777863983 | 12.78° C | 46% | 1009 hPa | 0 mm | - | 0 W/m² | - |
| 1777863679 | 12.78° C | 47% | 1009 hPa | 0 mm | - | 0 W/m² | - |
| 1777863376 | 12.22° C | 48% | 1009.2 hPa | 0 mm | - | 0 W/m² | - |
| 1777863073 | 12.22° C | 48% | 1009 hPa | 0 mm | - | 0 W/m² | - |
| 1777862771 | 12.22° C | 48% | 1008.9 hPa | 0 mm | - | 0 W/m² | - |
| 1777862467 | 12.22° C | 51% | 1009.2 hPa | 0 mm | - | 0 W/m² | - |
| 1777862163 | 12.22° C | 51% | 1009.2 hPa | 0 mm | - | 0 W/m² | - |
| 1777861859 | 12.22° C | 51% | 1009 hPa | 0 mm | - | 0 W/m² | - |
| 1777861556 | 11.67° C | 52% | 1009.4 hPa | 0 mm | - | 0 W/m² | - |
| 1777861252 | 11.67° C | 52% | 1009.3 hPa | 0 mm | - | 0 W/m² | - |
| 1777860950 | 11.67° C | 54% | 1009.2 hPa | 0 mm | - | 0 W/m² | - |
| 1777860646 | 11.67° C | 58% | 1009.2 hPa | 0 mm | - | 0 W/m² | - |
| 1777860343 | 10° C | 73% | 1009.2 hPa | 0 mm | - | 0 W/m² | - |
| 1777860040 | 10° C | 73% | 1009.4 hPa | 0 mm | - | 0 W/m² | - |
| 1777859736 | 10° C | 73% | 1009.4 hPa | 0 mm | - | 0 W/m² | - |
| 1777859432 | 9.44° C | 89% | 1009.4 hPa | 0 mm | - | 0 W/m² | - |
| 1777859129 | 9.44° C | 89% | 1009.4 hPa | 0 mm | - | 0 W/m² | - |
| 1777858826 | 9.44° C | 89% | 1009.4 hPa | 0 mm | - | 0 W/m² | - |
| 1777858524 | 9.44° C | 89% | 1009.5 hPa | 0 mm | - | 0 W/m² | - |
| 1777858220 | 9.44° C | 89% | 1009.5 hPa | 0 mm | - | 0 W/m² | - |
| 1777857918 | 9.44° C | 89% | 1009.6 hPa | 0 mm | - | 0 W/m² | - |
| 1777857616 | 9.44° C | 89% | 1009.8 hPa | 0 mm | - | 0 W/m² | - |
| 1777857312 | 9.44° C | 89% | 1009.6 hPa | 0 mm | - | 0 W/m² | - |
| 1777857008 | 8.89° C | 91% | 1009.6 hPa | 0 mm | - | 0 W/m² | - |
* Rain latest hour (hover to see other rain measurements)
** Current wind speed in m/s (hover to see current wind gust speed)